Time;durP1;ratioP1;P1;durP2;ratioP2;P2;SDS_P1;SDS_P2;PMS_P1;PMS_P2;Temp;Humidity;BMP_temperature;BMP_pressure;BME280_temperature;BME280_humidity;BME280_pressure;Samples;Min_cycle;Max_cycle;Signal;HPM_P1;HPM_P2
2021/12/07 05:40:15;;;;;;;;;;;;;;;0.92;100.00;97929.88;4899337;29;20312;-69
2021/12/07 05:42:42;;;;;;;;;;;;;;;0.86;100.00;97920.22;4891837;29;19935;-69
2021/12/07 05:45:14;;;;;;;;;;;;;;;0.91;100.00;97928.25;4895006;29;19931;-69
2021/12/07 05:47:43;;;;;;;;;;;;;;;0.89;100.00;97920.34;4897982;29;19958;-69
2021/12/07 05:50:11;;;;;;;;;;;;;;;0.88;100.00;97918.75;4896650;29;19927;-69
2021/12/07 05:52:39;;;;;;;;;;;;;;;0.91;100.00;97909.00;4896526;29;19931;-69
2021/12/07 05:55:07;;;;;;;;;;;;;;;0.95;100.00;97899.72;4898523;29;19932;-69
2021/12/07 05:57:35;;;;;;;;;;;;;;;1.00;100.00;97891.22;4898255;29;19934;-69
2021/12/07 06:00:05;;;;;;;;;;;;;;;1.01;100.00;97895.56;4881729;29;19932;-69
2021/12/07 06:02:39;;;;;;;;;;;;;;;1.07;100.00;97896.97;4898039;29;19932;-69
2021/12/07 06:05:07;;;;;;;;;;;;;;;1.17;100.00;97898.44;4897404;29;19938;-69
2021/12/07 06:07:34;;;;;;;;;;;;;;;1.26;100.00;97910.94;4897586;29;19939;-69
2021/12/07 06:10:01;;;;;;;;;;;;;;;1.37;93.98;97930.53;4900550;29;19943;-69
2021/12/07 06:12:29;;;;;;;;;;;;;;;1.42;94.76;97940.53;4894021;29;20315;-70
2021/12/07 06:14:57;;;;;;;;;;;;;;;1.27;98.92;97953.06;4896659;29;19927;-69
2021/12/07 06:17:24;;;;;;;;;;;;;;;0.92;100.00;97952.69;4897668;29;19931;-70
2021/12/07 06:19:51;;;;;;;;;;;;;;;0.74;100.00;97950.50;4897789;29;19931;-69
2021/12/07 06:22:19;;;;;;;;;;;;;;;0.54;100.00;97958.50;4897956;29;19939;-69
2021/12/07 06:24:49;;;;;;;;;;;;;;;0.45;100.00;97949.53;4897660;29;19942;-69
2021/12/07 06:27:16;;;;;;;;;;;;;;;0.43;100.00;97962.84;4898464;29;19936;-69
2021/12/07 06:29:44;;;;;;;;;;;;;;;0.37;100.00;97969.69;4896169;29;19938;-68
2021/12/07 06:32:11;;;;;;;;;;;;;;;0.34;100.00;97964.84;4896598;29;19935;-69
2021/12/07 06:34:38;;;;;;;;;;;;;;;0.29;100.00;97967.84;4897464;29;19931;-69
2021/12/07 06:37:06;;;;;;;;;;;;;;;0.29;100.00;97965.09;4893853;29;19935;-69
2021/12/07 06:39:34;;;;;;;;;;;;;;;0.37;100.00;97953.19;4900005;29;19931;-70
2021/12/07 06:42:02;;;;;;;;;;;;;;;0.38;100.00;97965.00;4899753;29;19935;-69
2021/12/07 06:44:29;;;;;;;;;;;;;;;0.38;100.00;97965.78;4898244;29;19932;-69
2021/12/07 06:46:56;;;;;;;;;;;;;;;0.53;100.00;97970.66;4907096;29;19931;-70
2021/12/07 06:49:24;;;;;;;;;;;;;;;0.68;100.00;97969.19;4882882;29;19928;-70
2021/12/07 06:51:52;;;;;;;;;;;;;;;0.76;100.00;97964.75;4899906;29;19938;-69
2021/12/07 06:54:19;;;;;;;;;;;;;;;0.86;100.00;97967.00;4908694;29;19932;-69
2021/12/07 06:56:47;;;;;;;;;;;;;;;0.96;100.00;97958.31;4912609;29;20354;-69
2021/12/07 06:59:14;;;;;;;;;;;;;;;1.05;96.44;97959.81;4901122;29;19938;-69
2021/12/07 07:01:42;;;;;;;;;;;;;;;1.15;97.53;97956.59;4910249;29;19931;-69
2021/12/07 07:04:11;;;;;;;;;;;;;;;1.24;96.34;97968.31;4894833;29;19927;-69
2021/12/07 07:06:39;;;;;;;;;;;;;;;1.30;95.69;97964.16;4913497;29;19938;-70
2021/12/07 07:09:07;;;;;;;;;;;;;;;1.38;95.37;97967.13;4902692;29;19943;-68
2021/12/07 07:11:34;;;;;;;;;;;;;;;1.44;96.76;97974.84;4895802;29;19938;-69
2021/12/07 07:14:02;;;;;;;;;;;;;;;1.53;97.80;97972.75;4898949;29;19931;-70
2021/12/07 07:16:29;;;;;;;;;;;;;;;1.46;100.00;97986.31;4905821;29;20216;-69
2021/12/07 07:18:57;;;;;;;;;;;;;;;1.60;100.00;97995.00;4903982;29;19931;-69
2021/12/07 07:21:24;;;;;;;;;;;;;;;2.13;100.00;97995.81;4897307;29;19927;-69
2021/12/07 07:23:53;;;;;;;;;;;;;;;3.10;96.59;97993.34;4890512;29;19931;-69
2021/12/07 07:26:20;;;;;;;;;;;;;;;4.26;87.47;98007.06;4882171;29;19958;-69
2021/12/07 07:28:48;;;;;;;;;;;;;;;5.26;80.43;98016.09;4898880;29;19936;-70
2021/12/07 07:31:15;;;;;;;;;;;;;;;6.50;71.67;98013.25;4900304;29;19931;-70
2021/12/07 07:33:43;;;;;;;;;;;;;;;7.17;69.86;98014.78;4899334;29;19932;-70
2021/12/07 07:36:11;;;;;;;;;;;;;;;8.31;62.97;98028.44;4898867;29;20470;-70
2021/12/07 07:38:38;;;;;;;;;;;;;;;9.04;60.93;98032.72;4897638;29;20281;-70
2021/12/07 07:41:06;;;;;;;;;;;;;;;10.20;53.52;98034.81;4899313;29;19931;-70
2021/12/07 07:43:33;;;;;;;;;;;;;;;11.95;46.41;98036.34;4879605;29;19936;-70
2021/12/07 07:46:07;;;;;;;;;;;;;;;12.79;42.89;98038.28;4895568;29;20564;-70
2021/12/07 07:48:34;;;;;;;;;;;;;;;14.32;39.98;98041.31;4896757;29;20435;-70
2021/12/07 07:51:02;;;;;;;;;;;;;;;15.32;37.18;98045.75;4897420;29;19932;-69
2021/12/07 07:53:29;;;;;;;;;;;;;;;15.75;35.07;98047.19;4895082;29;19939;-71
2021/12/07 07:55:59;;;;;;;;;;;;;;;17.06;33.03;98050.28;4886731;29;20176;-71
2021/12/07 07:58:27;;;;;;;;;;;;;;;18.65;28.34;98062.25;4897115;29;19931;-71
2021/12/07 08:00:55;;;;;;;;;;;;;;;20.10;26.89;98068.13;4906193;29;19936;-71
2021/12/07 08:03:22;;;;;;;;;;;;;;;19.86;25.62;98062.19;4900598;29;19931;-71
2021/12/07 08:05:49;;;;;;;;;;;;;;;20.60;23.25;98072.56;4901881;29;19973;-71
2021/12/07 08:08:22;;;;;;;;;;;;;;;20.75;22.38;98079.22;4882484;29;19963;-71
2021/12/07 08:10:50;;;;;;;;;;;;;;;21.46;22.73;98074.84;4900329;29;19949;-71
2021/12/07 08:13:20;;;;;;;;;;;;;;;21.05;23.28;98084.03;4901313;29;20365;-71
2021/12/07 08:15:49;;;;;;;;;;;;;;;20.22;22.51;98084.28;4897241;29;19948;-71
2021/12/07 08:18:18;;;;;;;;;;;;;;;19.59;23.77;98079.06;4905631;29;20413;-71
2021/12/07 08:20:46;;;;;;;;;;;;;;;18.12;24.72;98080.97;4907357;29;19953;-71
2021/12/07 08:23:13;;;;;;;;;;;;;;;17.07;26.30;98071.63;4908211;29;19948;-71
2021/12/07 08:25:42;;;;;;;;;;;;;;;16.98;26.94;98060.19;4898410;29;19964;-71
2021/12/07 08:28:14;;;;;;;;;;;;;;;16.36;27.67;98071.91;4907811;29;20291;-71
2021/12/07 08:30:42;;;;;;;;;;;;;;;16.17;27.78;98078.44;4909553;29;19932;-71
2021/12/07 08:33:10;;;;;;;;;;;;;;;16.11;27.33;98085.84;4898623;29;19976;-71
2021/12/07 08:35:38;;;;;;;;;;;;;;;15.97;28.09;98089.78;4901112;29;19974;-71
2021/12/07 08:38:06;;;;;;;;;;;;;;;15.01;29.64;98081.81;4898592;29;19933;-71
2021/12/07 08:40:34;;;;;;;;;;;;;;;14.29;31.14;98092.75;4885460;29;19976;-70
2021/12/07 08:43:02;;;;;;;;;;;;;;;13.43;32.53;98086.03;4904768;29;19936;-70
2021/12/07 08:45:30;;;;;;;;;;;;;;;12.47;34.36;98086.31;4903199;29;19978;-70
2021/12/07 08:47:58;;;;;;;;;;;;;;;11.73;36.03;98088.97;4898179;29;19982;-70
2021/12/07 08:50:29;;;;;;;;;;;;;;;11.08;38.82;98084.88;4899057;29;19934;-70
2021/12/07 08:53:02;;;;;;;;;;;;;;;10.38;40.75;98096.28;4899440;29;19931;-70
2021/12/07 09:01:04;;;;;;;;;;;;;;;9.39;44.51;98087.81;4899997;29;19931;-70
2021/12/07 09:03:31;;;;;;;;;;;;;;;9.29;45.06;98091.38;4908636;29;20185;-70
2021/12/07 09:05:59;;;;;;;;;;;;;;;9.09;46.48;98084.53;4909723;29;19931;-70
2021/12/07 09:08:26;;;;;;;;;;;;;;;8.87;47.36;98086.44;4909799;29;19939;-70
2021/12/07 09:10:54;;;;;;;;;;;;;;;8.61;48.38;98081.13;4911673;29;20001;-70
2021/12/07 09:13:24;;;;;;;;;;;;;;;8.51;48.69;98093.00;4901463;29;19950;-70
2021/12/07 09:15:51;;;;;;;;;;;;;;;8.49;49.10;98099.00;4906584;29;20355;-70
2021/12/07 09:18:19;;;;;;;;;;;;;;;8.39;49.32;98101.69;4912806;29;19931;-70
2021/12/07 09:20:46;;;;;;;;;;;;;;;8.38;50.85;98097.31;4908107;29;20519;-71
2021/12/07 09:23:14;;;;;;;;;;;;;;;8.22;51.24;98103.16;4905098;29;19935;-70
2021/12/07 09:25:41;;;;;;;;;;;;;;;8.25;51.53;98107.94;4907320;29;19931;-70
2021/12/07 09:28:10;;;;;;;;;;;;;;;8.20;51.25;98107.50;4898972;29;19932;-70
2021/12/07 09:30:38;;;;;;;;;;;;;;;8.24;49.88;98114.69;4907199;29;19932;-70
2021/12/07 09:33:05;;;;;;;;;;;;;;;8.29;51.30;98116.38;4913556;29;19938;-70
2021/12/07 09:35:33;;;;;;;;;;;;;;;8.30;50.39;98113.19;4903326;29;19947;-70
2021/12/07 09:38:01;;;;;;;;;;;;;;;8.34;50.74;98102.06;4904460;29;19955;-70
2021/12/07 09:40:29;;;;;;;;;;;;;;;8.27;52.51;98108.38;4907048;29;19931;-70
2021/12/07 09:42:57;;;;;;;;;;;;;;;8.36;53.76;98116.41;4902102;29;19931;-70
2021/12/07 09:45:25;;;;;;;;;;;;;;;8.32;52.90;98110.00;4902109;29;19932;-70
2021/12/07 09:47:56;;;;;;;;;;;;;;;8.34;52.84;98116.78;4898914;29;20221;-71
2021/12/07 09:50:23;;;;;;;;;;;;;;;8.37;52.39;98106.84;4898880;29;19931;-70
2021/12/07 09:52:51;;;;;;;;;;;;;;;8.56;53.78;98114.94;4908371;29;19938;-70
2021/12/07 09:55:19;;;;;;;;;;;;;;;8.44;52.94;98118.84;4891553;29;20687;-70
2021/12/07 09:57:47;;;;;;;;;;;;;;;8.62;52.40;98118.97;4893697;29;19927;-70
2021/12/07 10:00:17;;;;;;;;;;;;;;;8.68;51.97;98111.06;4895408;29;19966;-70
2021/12/07 10:02:45;;;;;;;;;;;;;;;8.59;53.93;98112.19;4897373;29;19939;-70
2021/12/07 10:05:16;;;;;;;;;;;;;;;8.81;53.66;98109.50;4895776;29;19935;-70
2021/12/07 10:07:44;;;;;;;;;;;;;;;8.90;52.75;98107.94;4897100;29;19935;-70
2021/12/07 10:10:22;;;;;;;;;;;;;;;8.83;52.88;98104.34;4898608;29;19927;-70
2021/12/07 10:12:50;;;;;;;;;;;;;;;9.00;53.35;98098.84;4898081;29;19966;-70
2021/12/07 10:15:18;;;;;;;;;;;;;;;8.93;54.47;98107.19;4904090;29;19934;-70
2021/12/07 10:18:17;;;;;;;;;;;;;;;8.94;54.58;98096.84;4906789;29;19928;-70
2021/12/07 10:21:12;;;;;;;;;;;;;;;9.07;54.04;98090.50;4870895;29;19934;-70
2021/12/07 10:23:50;;;;;;;;;;;;;;;9.09;53.83;98090.13;4899143;29;19931;-70
2021/12/07 10:26:24;;;;;;;;;;;;;;;9.05;54.27;98080.91;4897727;29;19931;-70
2021/12/07 10:28:54;;;;;;;;;;;;;;;9.32;53.52;98076.63;4901656;29;19935;-70
2021/12/07 10:31:24;;;;;;;;;;;;;;;9.28;52.46;98073.03;4904808;29;19934;-70
2021/12/07 10:33:53;;;;;;;;;;;;;;;9.31;52.20;98069.47;4901456;29;19931;-70
2021/12/07 10:36:20;;;;;;;;;;;;;;;9.31;52.21;98065.88;4899467;29;20356;-70
2021/12/07 10:38:53;;;;;;;;;;;;;;;9.09;52.14;98070.59;4899296;29;19938;-70
2021/12/07 10:41:23;;;;;;;;;;;;;;;9.27;53.02;98075.03;4901686;29;19931;-70
2021/12/07 10:43:59;;;;;;;;;;;;;;;9.27;54.24;98071.44;4898161;29;19932;-70
2021/12/07 10:46:37;;;;;;;;;;;;;;;9.23;55.43;98079.81;4898802;29;19935;-69
2021/12/07 10:49:10;;;;;;;;;;;;;;;8.93;57.63;98059.78;4897500;29;19931;-69
2021/12/07 10:51:38;;;;;;;;;;;;;;;8.81;58.08;98056.53;4897653;29;19932;-69
2021/12/07 10:54:06;;;;;;;;;;;;;;;8.88;57.67;98050.97;4898615;29;19942;-69
2021/12/07 10:56:36;;;;;;;;;;;;;;;8.79;58.14;98056.94;4899932;29;19942;-69
2021/12/07 10:59:05;;;;;;;;;;;;;;;8.82;59.45;98047.00;4899007;29;20224;-71
2021/12/07 11:01:39;;;;;;;;;;;;;;;8.72;61.74;98042.16;4896806;29;19931;-70
2021/12/07 11:04:21;;;;;;;;;;;;;;;8.69;63.48;98048.53;4897038;29;19928;-70
2021/12/07 11:07:07;;;;;;;;;;;;;;;8.64;65.80;98060.03;4901526;29;19927;-70
2021/12/07 11:09:38;;;;;;;;;;;;;;;8.67;66.66;98076.00;4896963;29;19935;-70
2021/12/07 11:12:09;;;;;;;;;;;;;;;8.69;69.49;98070.81;4898003;29;19928;-69
2021/12/07 11:14:40;;;;;;;;;;;;;;;8.72;69.35;98076.41;4898213;29;19938;-70
2021/12/07 11:17:07;;;;;;;;;;;;;;;8.58;69.70;98071.56;4898741;29;19932;-69
2021/12/07 11:19:36;;;;;;;;;;;;;;;8.68;71.23;98060.88;4895646;29;19935;-69
2021/12/07 11:22:03;;;;;;;;;;;;;;;8.60;70.07;98065.63;4896192;29;20010;-70
2021/12/07 11:24:35;;;;;;;;;;;;;;;8.63;69.26;98061.25;4898632;29;19943;-69
2021/12/07 11:30:11;;;;;;;;;;;;;;;8.38;68.97;98061.91;4900410;29;19927;-70
2021/12/07 11:32:48;;;;;;;;;;;;;;;8.27;70.09;98052.69;4912678;29;19934;-70
2021/12/07 11:35:18;;;;;;;;;;;;;;;8.20;70.42;98051.81;4897988;29;19986;-70
2021/12/07 11:37:46;;;;;;;;;;;;;;;8.30;69.55;98039.97;4901422;29;19927;-70
2021/12/07 11:40:17;;;;;;;;;;;;;;;8.04;73.75;98035.41;4899569;29;19935;-70
2021/12/07 11:42:46;;;;;;;;;;;;;;;8.07;70.40;98033.84;4899608;29;19927;-69
2021/12/07 11:45:17;;;;;;;;;;;;;;;8.14;69.58;98026.31;4899053;29;19931;-69
2021/12/07 11:47:50;;;;;;;;;;;;;;;8.11;70.59;98024.31;4899753;29;19932;-69
2021/12/07 11:50:20;;;;;;;;;;;;;;;7.99;70.88;98032.19;4900139;29;20259;-69
2021/12/07 11:52:50;;;;;;;;;;;;;;;7.97;71.14;98027.78;4898365;29;19931;-72
2021/12/07 11:55:17;;;;;;;;;;;;;;;7.90;72.19;98027.72;4896516;29;20288;-74
2021/12/07 11:57:46;;;;;;;;;;;;;;;7.88;72.00;98023.75;4897088;29;19928;-73
2021/12/07 12:00:18;;;;;;;;;;;;;;;7.92;69.45;98017.00;4898504;29;19935;-72
2021/12/07 12:02:45;;;;;;;;;;;;;;;7.83;68.44;98010.19;4900117;29;19935;-73
2021/12/07 12:05:12;;;;;;;;;;;;;;;7.89;70.76;98025.34;4899451;29;19931;-69
2021/12/07 12:07:41;;;;;;;;;;;;;;;7.74;68.74;98021.66;4899432;29;19933;-69
2021/12/07 12:10:10;;;;;;;;;;;;;;;7.81;67.49;98018.94;4899204;29;20345;-69
2021/12/07 12:12:40;;;;;;;;;;;;;;;7.87;68.67;98011.81;4898921;29;19943;-69
2021/12/07 12:15:13;;;;;;;;;;;;;;;7.85;69.64;98010.59;4897851;29;20272;-69
2021/12/07 12:17:53;;;;;;;;;;;;;;;7.71;68.34;98018.84;4900183;29;19931;-69
2021/12/07 12:20:46;;;;;;;;;;;;;;;7.70;69.39;98020.03;4898869;29;19927;-69
2021/12/07 12:23:23;;;;;;;;;;;;;;;7.85;70.24;98025.31;4889703;29;20084;-69
2021/12/07 12:25:54;;;;;;;;;;;;;;;7.70;71.78;98023.59;4901739;29;19934;-68
2021/12/07 12:28:23;;;;;;;;;;;;;;;7.70;72.65;98029.16;4898137;29;19928;-69
2021/12/07 12:30:51;;;;;;;;;;;;;;;7.79;71.95;98031.63;4914346;29;20305;-69
2021/12/07 12:33:18;;;;;;;;;;;;;;;7.88;71.18;98024.53;4899133;29;19928;-69
2021/12/07 12:35:50;;;;;;;;;;;;;;;7.85;69.47;98027.28;4898265;29;19935;-69
2021/12/07 12:38:22;;;;;;;;;;;;;;;7.83;67.07;98024.91;4898775;29;19938;-68
2021/12/07 12:41:00;;;;;;;;;;;;;;;7.89;67.95;98019.78;4897136;29;20233;-69
2021/12/07 12:43:33;;;;;;;;;;;;;;;7.79;67.86;98020.50;4898696;29;19931;-69
2021/12/07 12:46:02;;;;;;;;;;;;;;;7.80;66.73;98008.97;4897916;29;19927;-69
2021/12/07 12:48:30;;;;;;;;;;;;;;;7.87;68.62;98016.59;4899129;29;20232;-69
2021/12/07 12:50:57;;;;;;;;;;;;;;;7.85;69.57;98010.59;4898693;29;19939;-69
2021/12/07 12:53:32;;;;;;;;;;;;;;;7.90;66.85;98018.56;4898695;29;19938;-69
2021/12/07 12:56:01;;;;;;;;;;;;;;;7.67;68.06;98001.31;4896944;29;19938;-69
2021/12/07 12:58:29;;;;;;;;;;;;;;;7.79;67.43;98001.00;4898067;29;19931;-69
2021/12/07 13:00:56;;;;;;;;;;;;;;;7.79;67.36;97989.88;4898891;29;19961;-69
2021/12/07 13:03:24;;;;;;;;;;;;;;;7.81;67.16;97987.50;4909888;29;19931;-69
2021/12/07 13:06:00;;;;;;;;;;;;;;;7.74;68.41;97984.69;4917065;29;19931;-69
2021/12/07 13:08:27;;;;;;;;;;;;;;;7.67;68.59;97974.31;4893895;29;19938;-69
2021/12/07 13:10:59;;;;;;;;;;;;;;;7.71;67.79;97977.09;4897420;29;19931;-69
2021/12/07 13:13:31;;;;;;;;;;;;;;;7.73;70.22;97975.53;4897934;29;19935;-69
2021/12/07 13:16:10;;;;;;;;;;;;;;;7.69;68.66;97973.91;4897395;29;19931;-69
2021/12/07 13:18:41;;;;;;;;;;;;;;;7.78;72.84;97975.16;4898370;29;20320;-69
2021/12/07 13:21:28;;;;;;;;;;;;;;;7.82;70.38;97975.19;4896750;29;20311;-69
2021/12/07 13:24:16;;;;;;;;;;;;;;;7.65;69.65;97968.34;4897347;29;20260;-68
2021/12/07 13:26:44;;;;;;;;;;;;;;;7.61;70.98;97969.47;4896409;29;20264;-69
2021/12/07 13:29:16;;;;;;;;;;;;;;;7.40;72.81;97970.13;4896856;29;19928;-69
2021/12/07 13:31:45;;;;;;;;;;;;;;;7.37;75.11;97967.28;4897216;29;19938;-69
2021/12/07 13:34:15;;;;;;;;;;;;;;;7.20;73.72;97969.53;4897706;29;19931;-69
2021/12/07 13:36:53;;;;;;;;;;;;;;;7.31;73.43;97966.06;4897052;29;19931;-69
2021/12/07 13:39:22;;;;;;;;;;;;;;;7.27;75.21;97964.03;4898103;29;19943;-69
2021/12/07 13:42:08;;;;;;;;;;;;;;;7.25;75.28;97965.59;4897971;29;19931;-69
2021/12/07 13:44:36;;;;;;;;;;;;;;;7.37;72.64;97950.59;4896572;29;20457;-69
2021/12/07 13:47:05;;;;;;;;;;;;;;;7.25;74.29;97952.50;4896179;29;20214;-69
2021/12/07 13:49:33;;;;;;;;;;;;;;;7.31;72.50;97963.28;4901348;29;19939;-69
2021/12/07 13:52:01;;;;;;;;;;;;;;;7.26;73.98;97956.88;4899950;29;19928;-69
2021/12/07 13:54:28;;;;;;;;;;;;;;;7.18;76.66;97963.56;4897926;29;19935;-69
2021/12/07 13:56:55;;;;;;;;;;;;;;;7.15;73.30;97952.41;4893703;29;19942;-69
2021/12/07 13:59:26;;;;;;;;;;;;;;;7.13;75.50;97952.81;4900764;29;19931;-69
2021/12/07 14:01:55;;;;;;;;;;;;;;;7.12;75.01;97953.16;4902208;29;19987;-69
2021/12/07 14:04:23;;;;;;;;;;;;;;;7.12;75.00;97942.84;4899272;29;19932;-69
2021/12/07 14:06:51;;;;;;;;;;;;;;;7.12;75.49;97942.03;4899574;29;19955;-69
2021/12/07 14:09:19;;;;;;;;;;;;;;;7.10;75.98;97938.84;4898566;29;19943;-69
2021/12/07 14:11:52;;;;;;;;;;;;;;;7.04;76.37;97932.84;4897623;29;19935;-69
2021/12/07 14:14:20;;;;;;;;;;;;;;;7.01;76.31;97936.41;4897817;29;19931;-69
2021/12/07 14:16:47;;;;;;;;;;;;;;;7.02;76.47;97937.19;4898511;29;19942;-69
2021/12/07 14:19:15;;;;;;;;;;;;;;;7.00;76.57;97937.56;4898127;29;19938;-69
2021/12/07 14:21:43;;;;;;;;;;;;;;;7.00;76.48;97940.34;4900931;29;19932;-69
2021/12/07 14:24:16;;;;;;;;;;;;;;;7.02;76.36;97940.75;4896209;29;20352;-69
2021/12/07 14:26:44;;;;;;;;;;;;;;;7.01;76.81;97941.97;4897307;29;19931;-69
2021/12/07 14:29:22;;;;;;;;;;;;;;;7.01;76.40;97947.53;4899523;29;19935;-69
2021/12/07 14:31:51;;;;;;;;;;;;;;;6.90;78.20;97934.69;4898548;29;20503;-69
2021/12/07 14:34:21;;;;;;;;;;;;;;;6.79;78.25;97937.38;4897860;29;19932;-69
2021/12/07 14:36:59;;;;;;;;;;;;;;;6.81;78.46;97932.22;4899111;29;19928;-69
2021/12/07 14:39:29;;;;;;;;;;;;;;;6.84;77.99;97930.69;4899904;29;19986;-69
2021/12/07 14:42:00;;;;;;;;;;;;;;;6.82;76.85;97933.84;4898540;29;19934;-69
2021/12/07 14:44:29;;;;;;;;;;;;;;;6.80;77.00;97927.84;4899368;29;20339;-69
2021/12/07 14:47:00;;;;;;;;;;;;;;;6.73;77.52;97930.56;4900770;29;19938;-69
2021/12/07 14:49:27;;;;;;;;;;;;;;;6.57;78.63;97927.22;4880810;29;19935;-69
2021/12/07 14:51:55;;;;;;;;;;;;;;;6.47;79.00;97922.34;4899767;29;19932;-69
2021/12/07 14:54:22;;;;;;;;;;;;;;;6.39;80.18;97913.13;4897448;29;19932;-69
2021/12/07 14:56:49;;;;;;;;;;;;;;;6.36;80.46;97932.53;4896873;29;19931;-69
2021/12/07 14:59:18;;;;;;;;;;;;;;;6.28;81.38;97933.63;4897726;29;19994;-69
2021/12/07 15:01:50;;;;;;;;;;;;;;;6.25;82.79;97935.19;4899204;29;19934;-69
2021/12/07 15:04:19;;;;;;;;;;;;;;;6.20;87.83;97932.75;4897849;29;19939;-69
2021/12/07 15:06:48;;;;;;;;;;;;;;;6.11;84.93;97935.03;4897927;29;19934;-69
2021/12/07 15:09:16;;;;;;;;;;;;;;;6.06;83.67;97934.53;4898489;29;19928;-69
2021/12/07 15:11:45;;;;;;;;;;;;;;;5.99;87.45;97929.72;4899595;29;19932;-69
2021/12/07 15:14:14;;;;;;;;;;;;;;;5.95;86.48;97926.88;4893478;29;19938;-69
2021/12/07 15:16:43;;;;;;;;;;;;;;;5.89;86.49;97928.38;4897878;29;20301;-69
2021/12/07 15:19:10;;;;;;;;;;;;;;;5.87;88.34;97927.94;4898851;29;19932;-69
2021/12/07 15:21:38;;;;;;;;;;;;;;;5.87;87.31;97933.50;4893849;29;19935;-69
2021/12/07 15:24:07;;;;;;;;;;;;;;;5.77;91.07;97939.66;4897962;29;20201;-69
2021/12/07 15:26:35;;;;;;;;;;;;;;;5.66;93.43;97933.19;4896267;29;19927;-69
2021/12/07 15:29:21;;;;;;;;;;;;;;;5.64;92.89;97932.75;4895593;29;19934;-69
2021/12/07 15:31:51;;;;;;;;;;;;;;;5.59;94.69;97935.06;4899944;29;20238;-69
2021/12/07 15:34:20;;;;;;;;;;;;;;;5.51;94.65;97936.09;4897530;29;19932;-69
2021/12/07 15:36:54;;;;;;;;;;;;;;;5.46;98.36;97942.78;4881744;29;19938;-69
2021/12/07 15:39:23;;;;;;;;;;;;;;;5.37;99.87;97938.66;4898668;29;19935;-69
2021/12/07 15:41:53;;;;;;;;;;;;;;;5.39;100.00;97939.09;4898073;29;19938;-69
2021/12/07 15:44:29;;;;;;;;;;;;;;;5.26;100.00;97932.94;4889805;29;19931;-69
2021/12/07 15:47:02;;;;;;;;;;;;;;;5.23;100.00;97930.94;4897597;29;19928;-69
2021/12/07 15:49:31;;;;;;;;;;;;;;;5.15;100.00;97929.22;4897494;29;19927;-69
2021/12/07 15:52:00;;;;;;;;;;;;;;;5.09;100.00;97931.50;4899119;29;19934;-69
2021/12/07 15:54:27;;;;;;;;;;;;;;;5.05;100.00;97946.47;4896057;29;19936;-69
2021/12/07 15:57:05;;;;;;;;;;;;;;;5.05;100.00;97952.81;4896677;29;19935;-69
2021/12/07 15:59:34;;;;;;;;;;;;;;;4.96;100.00;97954.25;4899094;29;19932;-69
2021/12/07 16:02:02;;;;;;;;;;;;;;;4.95;100.00;97950.66;4898826;29;20396;-69
2021/12/07 16:04:34;;;;;;;;;;;;;;;4.87;100.00;97945.34;4899361;29;19927;-69
2021/12/07 16:07:03;;;;;;;;;;;;;;;4.81;100.00;97939.34;4899491;29;19935;-69
2021/12/07 16:09:30;;;;;;;;;;;;;;;4.78;100.00;97929.00;4900543;29;20213;-69
2021/12/07 16:12:14;;;;;;;;;;;;;;;4.76;100.00;97938.84;4901119;29;19935;-69
2021/12/07 16:14:41;;;;;;;;;;;;;;;4.80;100.00;97948.00;4877743;29;19928;-69
2021/12/07 16:17:18;;;;;;;;;;;;;;;4.77;100.00;97940.44;4899464;29;19936;-69
2021/12/07 16:19:46;;;;;;;;;;;;;;;4.75;100.00;97940.78;4899259;29;19931;-69
2021/12/07 16:22:14;;;;;;;;;;;;;;;4.75;100.00;97942.75;4897292;29;19931;-69
2021/12/07 16:24:42;;;;;;;;;;;;;;;4.74;100.00;97932.88;4896728;29;19934;-69
2021/12/07 16:27:11;;;;;;;;;;;;;;;4.73;100.00;97940.38;4896309;29;19931;-69
2021/12/07 16:29:41;;;;;;;;;;;;;;;4.71;100.00;97952.97;4898468;29;19931;-69
2021/12/07 16:32:08;;;;;;;;;;;;;;;4.62;100.00;97964.31;4901806;29;19931;-69
2021/12/07 16:34:35;;;;;;;;;;;;;;;4.55;100.00;97970.50;4899756;29;19934;-69
2021/12/07 16:37:10;;;;;;;;;;;;;;;4.48;100.00;97966.78;4898389;29;19928;-69
2021/12/07 16:39:38;;;;;;;;;;;;;;;4.45;100.00;97967.53;4897459;29;19936;-69
2021/12/07 16:42:05;;;;;;;;;;;;;;;4.44;100.00;97955.66;4896013;29;19927;-69
2021/12/07 16:44:33;;;;;;;;;;;;;;;4.43;100.00;97972.63;4884663;29;19932;-69
2021/12/07 16:47:02;;;;;;;;;;;;;;;4.43;100.00;97969.84;4900173;29;19928;-69
2021/12/07 16:49:30;;;;;;;;;;;;;;;4.44;100.00;97982.53;4905824;29;19931;-69
2021/12/07 16:51:58;;;;;;;;;;;;;;;4.51;100.00;97971.59;4898295;29;19935;-69
2021/12/07 16:54:30;;;;;;;;;;;;;;;4.60;100.00;97975.75;4899917;29;19948;-69
2021/12/07 16:56:59;;;;;;;;;;;;;;;4.55;100.00;97969.69;4895535;29;19931;-69
2021/12/07 16:59:26;;;;;;;;;;;;;;;4.50;100.00;97961.69;4905323;29;19927;-69
2021/12/07 17:01:54;;;;;;;;;;;;;;;4.47;100.00;97965.19;4902705;29;19931;-69
2021/12/07 17:04:21;;;;;;;;;;;;;;;4.52;100.00;97976.75;4898752;29;19936;-69
2021/12/07 17:06:48;;;;;;;;;;;;;;;4.60;100.00;97980.47;4897355;29;19938;-69
2021/12/07 17:09:17;;;;;;;;;;;;;;;4.67;100.00;97979.81;4896882;29;19934;-69
2021/12/07 17:11:44;;;;;;;;;;;;;;;4.58;100.00;97975.31;4898613;29;19943;-69
2021/12/07 17:14:11;;;;;;;;;;;;;;;4.47;100.00;97979.03;4896642;29;19927;-69
2021/12/07 17:16:39;;;;;;;;;;;;;;;4.34;100.00;97975.63;4897094;29;19962;-69
2021/12/07 17:19:06;;;;;;;;;;;;;;;4.33;100.00;97975.97;4897034;29;19931;-69
2021/12/07 17:21:34;;;;;;;;;;;;;;;4.28;100.00;97985.38;4899224;29;19939;-69
2021/12/07 17:24:01;;;;;;;;;;;;;;;4.25;100.00;97979.78;4895271;29;20305;-69
2021/12/07 17:26:29;;;;;;;;;;;;;;;4.26;100.00;98001.53;4892653;29;19932;-69
2021/12/07 17:28:58;;;;;;;;;;;;;;;4.36;100.00;98000.16;4896516;29;19936;-69
2021/12/07 17:31:25;;;;;;;;;;;;;;;4.43;100.00;97989.22;4894736;29;19935;-69
2021/12/07 17:33:52;;;;;;;;;;;;;;;4.39;100.00;97980.88;4903186;29;19940;-69
2021/12/07 17:36:20;;;;;;;;;;;;;;;4.29;100.00;97975.91;4895018;29;19936;-69
2021/12/07 17:38:52;;;;;;;;;;;;;;;4.33;100.00;97974.00;4895765;29;19940;-69
2021/12/07 17:41:20;;;;;;;;;;;;;;;4.41;100.00;97973.00;4897165;29;20229;-69
2021/12/07 17:43:50;;;;;;;;;;;;;;;4.41;100.00;97969.41;4895803;29;19962;-69
2021/12/07 17:46:19;;;;;;;;;;;;;;;4.64;100.00;97971.09;4895791;29;19938;-69
2021/12/07 17:48:47;;;;;;;;;;;;;;;4.55;100.00;97956.66;4896162;29;19938;-69
2021/12/07 17:51:14;;;;;;;;;;;;;;;4.37;100.00;97940.88;4897451;29;19927;-69
2021/12/07 17:53:42;;;;;;;;;;;;;;;4.27;100.00;97947.00;4895632;29;19928;-69
2021/12/07 17:56:09;;;;;;;;;;;;;;;4.24;100.00;97958.78;4895073;29;19935;-69
2021/12/07 17:58:36;;;;;;;;;;;;;;;4.36;100.00;97964.97;4894953;29;19935;-69
2021/12/07 18:01:04;;;;;;;;;;;;;;;4.18;100.00;97971.34;4896664;29;19932;-68
2021/12/07 18:03:31;;;;;;;;;;;;;;;4.12;100.00;97973.56;4897480;29;19950;-69
2021/12/07 18:05:59;;;;;;;;;;;;;;;4.07;100.00;97973.88;4897023;29;19936;-69
2021/12/07 18:08:26;;;;;;;;;;;;;;;4.15;100.00;97978.41;4898763;29;19932;-69
2021/12/07 18:10:54;;;;;;;;;;;;;;;4.07;100.00;97986.88;4900011;29;20423;-69
2021/12/07 18:13:21;;;;;;;;;;;;;;;4.02;100.00;97990.75;4891991;29;19940;-69
2021/12/07 18:15:49;;;;;;;;;;;;;;;4.11;100.00;97985.81;4902646;29;19942;-69
2021/12/07 18:18:16;;;;;;;;;;;;;;;4.11;100.00;97991.34;4897783;29;19927;-69
2021/12/07 18:20:44;;;;;;;;;;;;;;;4.01;100.00;97991.91;4895561;29;19938;-69
2021/12/07 18:23:14;;;;;;;;;;;;;;;3.99;100.00;97995.03;4895800;29;19934;-69
2021/12/07 18:25:42;;;;;;;;;;;;;;;4.03;100.00;98003.44;4891813;29;19935;-69
2021/12/07 18:28:11;;;;;;;;;;;;;;;4.02;100.00;98001.81;4895287;29;19928;-69
2021/12/07 18:30:43;;;;;;;;;;;;;;;3.91;100.00;98009.88;4900520;29;19936;-69
2021/12/07 18:33:12;;;;;;;;;;;;;;;3.80;100.00;98014.38;4898005;29;19942;-69
2021/12/07 18:35:40;;;;;;;;;;;;;;;3.93;100.00;98017.81;4899942;29;19934;-68
2021/12/07 18:38:10;;;;;;;;;;;;;;;3.98;100.00;98031.38;4899970;29;19932;-69
2021/12/07 18:40:38;;;;;;;;;;;;;;;3.91;100.00;98023.69;4900303;29;19932;-69
2021/12/07 18:43:06;;;;;;;;;;;;;;;3.70;100.00;98014.94;4900572;29;20336;-69
2021/12/07 18:45:34;;;;;;;;;;;;;;;3.65;100.00;98011.63;4902484;29;19932;-69
2021/12/07 18:48:03;;;;;;;;;;;;;;;3.68;100.00;98011.72;4908732;29;19938;-69
2021/12/07 18:50:31;;;;;;;;;;;;;;;3.47;100.00;98021.47;4904235;29;19931;-69
2021/12/07 18:52:58;;;;;;;;;;;;;;;3.29;100.00;98021.84;4900689;29;19935;-69